sensor_id;sensor_type;location;lat;lon;timestamp;P1;durP1;ratioP1;P2;durP2;ratioP2
8704;SDS011;4389;41.932;25.904;2023-04-26T00:01:00;6.40;;;3.07;;
8704;SDS011;4389;41.932;25.904;2023-04-26T00:03:29;5.23;;;4.00;;
8704;SDS011;4389;41.932;25.904;2023-04-26T00:05:58;3.73;;;3.33;;
8704;SDS011;4389;41.932;25.904;2023-04-26T00:08:30;6.73;;;3.83;;
8704;SDS011;4389;41.932;25.904;2023-04-26T00:10:59;5.37;;;3.17;;
8704;SDS011;4389;41.932;25.904;2023-04-26T00:13:26;5.30;;;3.10;;
8704;SDS011;4389;41.932;25.904;2023-04-26T00:15:53;4.00;;;3.60;;
8704;SDS011;4389;41.932;25.904;2023-04-26T00:18:19;3.43;;;3.13;;
8704;SDS011;4389;41.932;25.904;2023-04-26T00:20:47;7.37;;;3.20;;
8704;SDS011;4389;41.932;25.904;2023-04-26T00:23:13;5.00;;;3.53;;
8704;SDS011;4389;41.932;25.904;2023-04-26T00:25:41;3.60;;;3.20;;
8704;SDS011;4389;41.932;25.904;2023-04-26T00:28:09;3.63;;;3.33;;
8704;SDS011;4389;41.932;25.904;2023-04-26T00:30:36;4.73;;;3.43;;
8704;SDS011;4389;41.932;25.904;2023-04-26T00:33:06;5.20;;;3.20;;
8704;SDS011;4389;41.932;25.904;2023-04-26T00:35:33;3.90;;;3.60;;
8704;SDS011;4389;41.932;25.904;2023-04-26T00:37:59;5.57;;;3.67;;
8704;SDS011;4389;41.932;25.904;2023-04-26T00:40:26;7.20;;;4.17;;
8704;SDS011;4389;41.932;25.904;2023-04-26T00:42:55;5.83;;;3.53;;
8704;SDS011;4389;41.932;25.904;2023-04-26T00:45:24;3.40;;;3.10;;
8704;SDS011;4389;41.932;25.904;2023-04-26T00:47:52;5.97;;;3.87;;
8704;SDS011;4389;41.932;25.904;2023-04-26T00:50:19;5.80;;;3.57;;
8704;SDS011;4389;41.932;25.904;2023-04-26T00:52:46;5.90;;;3.37;;
8704;SDS011;4389;41.932;25.904;2023-04-26T00:55:13;7.77;;;3.33;;
8704;SDS011;4389;41.932;25.904;2023-04-26T00:57:42;4.10;;;3.53;;
8704;SDS011;4389;41.932;25.904;2023-04-26T01:00:11;3.40;;;3.10;;
8704;SDS011;4389;41.932;25.904;2023-04-26T01:02:39;3.53;;;2.97;;
8704;SDS011;4389;41.932;25.904;2023-04-26T01:05:06;7.00;;;3.80;;
8704;SDS011;4389;41.932;25.904;2023-04-26T01:07:34;6.33;;;4.07;;
8704;SDS011;4389;41.932;25.904;2023-04-26T01:10:02;5.10;;;4.60;;
8704;SDS011;4389;41.932;25.904;2023-04-26T01:12:30;5.27;;;4.80;;
8704;SDS011;4389;41.932;25.904;2023-04-26T01:14:58;5.70;;;5.20;;
8704;SDS011;4389;41.932;25.904;2023-04-26T01:17:25;8.13;;;4.77;;
8704;SDS011;4389;41.932;25.904;2023-04-26T01:19:53;7.63;;;4.57;;
8704;SDS011;4389;41.932;25.904;2023-04-26T01:22:21;17.40;;;5.73;;
8704;SDS011;4389;41.932;25.904;2023-04-26T01:24:50;6.13;;;5.13;;
8704;SDS011;4389;41.932;25.904;2023-04-26T01:27:20;6.47;;;5.47;;
8704;SDS011;4389;41.932;25.904;2023-04-26T01:29:46;6.80;;;5.07;;
8704;SDS011;4389;41.932;25.904;2023-04-26T01:32:13;5.60;;;4.70;;
8704;SDS011;4389;41.932;25.904;2023-04-26T01:34:40;5.37;;;4.90;;
8704;SDS011;4389;41.932;25.904;2023-04-26T01:37:07;6.67;;;4.60;;
8704;SDS011;4389;41.932;25.904;2023-04-26T01:39:34;5.27;;;4.77;;
8704;SDS011;4389;41.932;25.904;2023-04-26T01:42:03;7.70;;;4.83;;
8704;SDS011;4389;41.932;25.904;2023-04-26T01:44:30;8.23;;;4.60;;
8704;SDS011;4389;41.932;25.904;2023-04-26T01:46:57;7.77;;;5.67;;
8704;SDS011;4389;41.932;25.904;2023-04-26T01:49:24;5.70;;;5.10;;
8704;SDS011;4389;41.932;25.904;2023-04-26T01:51:51;5.93;;;4.57;;
8704;SDS011;4389;41.932;25.904;2023-04-26T01:54:17;6.70;;;5.10;;
8704;SDS011;4389;41.932;25.904;2023-04-26T01:56:45;7.83;;;5.23;;
8704;SDS011;4389;41.932;25.904;2023-04-26T01:59:13;5.57;;;4.93;;
8704;SDS011;4389;41.932;25.904;2023-04-26T02:01:40;8.03;;;5.80;;
8704;SDS011;4389;41.932;25.904;2023-04-26T02:04:08;5.47;;;4.97;;
8704;SDS011;4389;41.932;25.904;2023-04-26T02:06:35;6.57;;;5.17;;
8704;SDS011;4389;41.932;25.904;2023-04-26T02:09:02;6.87;;;5.50;;
8704;SDS011;4389;41.932;25.904;2023-04-26T02:11:29;9.47;;;5.63;;
8704;SDS011;4389;41.932;25.904;2023-04-26T02:13:55;6.33;;;5.30;;
8704;SDS011;4389;41.932;25.904;2023-04-26T02:16:24;6.53;;;5.70;;
8704;SDS011;4389;41.932;25.904;2023-04-26T02:18:51;10.53;;;6.33;;
8704;SDS011;4389;41.932;25.904;2023-04-26T02:21:19;6.60;;;5.87;;
8704;SDS011;4389;41.932;25.904;2023-04-26T02:23:46;9.93;;;6.70;;
8704;SDS011;4389;41.932;25.904;2023-04-26T02:26:13;6.53;;;5.83;;
8704;SDS011;4389;41.932;25.904;2023-04-26T02:28:40;6.07;;;5.53;;
8704;SDS011;4389;41.932;25.904;2023-04-26T02:31:07;6.57;;;5.90;;
8704;SDS011;4389;41.932;25.904;2023-04-26T02:33:35;6.53;;;5.40;;
8704;SDS011;4389;41.932;25.904;2023-04-26T02:36:02;7.13;;;5.40;;
8704;SDS011;4389;41.932;25.904;2023-04-26T02:38:31;7.47;;;5.60;;
8704;SDS011;4389;41.932;25.904;2023-04-26T02:40:59;7.00;;;5.50;;
8704;SDS011;4389;41.932;25.904;2023-04-26T02:43:26;8.37;;;6.30;;
8704;SDS011;4389;41.932;25.904;2023-04-26T02:45:53;6.30;;;5.60;;
8704;SDS011;4389;41.932;25.904;2023-04-26T02:48:22;8.43;;;6.10;;
8704;SDS011;4389;41.932;25.904;2023-04-26T02:50:51;7.27;;;5.83;;
8704;SDS011;4389;41.932;25.904;2023-04-26T02:53:18;7.07;;;5.67;;
8704;SDS011;4389;41.932;25.904;2023-04-26T02:55:45;8.03;;;5.00;;
8704;SDS011;4389;41.932;25.904;2023-04-26T02:58:11;8.03;;;5.40;;
8704;SDS011;4389;41.932;25.904;2023-04-26T03:00:38;6.20;;;5.50;;
8704;SDS011;4389;41.932;25.904;2023-04-26T03:03:11;7.57;;;6.77;;
8704;SDS011;4389;41.932;25.904;2023-04-26T03:05:38;6.93;;;6.20;;
8704;SDS011;4389;41.932;25.904;2023-04-26T03:08:07;6.93;;;5.20;;
8704;SDS011;4389;41.932;25.904;2023-04-26T03:10:34;6.47;;;5.57;;
8704;SDS011;4389;41.932;25.904;2023-04-26T03:13:02;6.13;;;5.53;;
8704;SDS011;4389;41.932;25.904;2023-04-26T03:15:29;5.47;;;4.90;;
8704;SDS011;4389;41.932;25.904;2023-04-26T03:17:56;5.63;;;5.13;;
8704;SDS011;4389;41.932;25.904;2023-04-26T03:20:23;5.77;;;5.17;;
8704;SDS011;4389;41.932;25.904;2023-04-26T03:22:50;6.53;;;5.27;;
8704;SDS011;4389;41.932;25.904;2023-04-26T03:25:18;6.23;;;5.07;;
8704;SDS011;4389;41.932;25.904;2023-04-26T03:27:45;6.97;;;5.90;;
8704;SDS011;4389;41.932;25.904;2023-04-26T03:30:12;5.80;;;5.30;;
8704;SDS011;4389;41.932;25.904;2023-04-26T03:32:40;6.00;;;5.50;;
8704;SDS011;4389;41.932;25.904;2023-04-26T03:35:07;9.87;;;6.17;;
8704;SDS011;4389;41.932;25.904;2023-04-26T03:37:35;8.00;;;6.20;;
8704;SDS011;4389;41.932;25.904;2023-04-26T03:40:04;11.60;;;8.63;;
8704;SDS011;4389;41.932;25.904;2023-04-26T03:42:34;8.10;;;7.13;;
8704;SDS011;4389;41.932;25.904;2023-04-26T03:45:01;8.07;;;6.20;;
8704;SDS011;4389;41.932;25.904;2023-04-26T03:47:29;6.57;;;5.87;;
8704;SDS011;4389;41.932;25.904;2023-04-26T03:49:56;5.90;;;5.30;;
8704;SDS011;4389;41.932;25.904;2023-04-26T03:52:23;6.43;;;5.13;;
8704;SDS011;4389;41.932;25.904;2023-04-26T03:54:49;6.73;;;5.13;;
8704;SDS011;4389;41.932;25.904;2023-04-26T03:57:16;8.63;;;4.83;;
8704;SDS011;4389;41.932;25.904;2023-04-26T03:59:44;6.60;;;4.97;;
8704;SDS011;4389;41.932;25.904;2023-04-26T04:02:11;6.37;;;5.07;;
8704;SDS011;4389;41.932;25.904;2023-04-26T04:04:38;6.47;;;5.80;;
8704;SDS011;4389;41.932;25.904;2023-04-26T04:07:06;8.00;;;4.83;;
8704;SDS011;4389;41.932;25.904;2023-04-26T04:09:32;4.90;;;4.50;;
8704;SDS011;4389;41.932;25.904;2023-04-26T04:11:59;7.90;;;4.70;;
8704;SDS011;4389;41.932;25.904;2023-04-26T04:14:27;5.27;;;4.77;;
8704;SDS011;4389;41.932;25.904;2023-04-26T04:16:55;4.60;;;4.20;;
8704;SDS011;4389;41.932;25.904;2023-04-26T04:19:23;8.37;;;5.87;;
8704;SDS011;4389;41.932;25.904;2023-04-26T04:21:50;5.97;;;4.90;;
8704;SDS011;4389;41.932;25.904;2023-04-26T04:24:17;5.87;;;5.23;;
8704;SDS011;4389;41.932;25.904;2023-04-26T04:26:44;7.07;;;5.57;;
8704;SDS011;4389;41.932;25.904;2023-04-26T04:29:11;7.67;;;6.30;;
8704;SDS011;4389;41.932;25.904;2023-04-26T04:31:38;10.47;;;8.40;;
8704;SDS011;4389;41.932;25.904;2023-04-26T04:34:07;10.90;;;9.77;;
8704;SDS011;4389;41.932;25.904;2023-04-26T04:36:35;14.00;;;9.00;;
8704;SDS011;4389;41.932;25.904;2023-04-26T04:39:03;7.27;;;6.57;;
8704;SDS011;4389;41.932;25.904;2023-04-26T04:41:30;6.67;;;5.97;;
8704;SDS011;4389;41.932;25.904;2023-04-26T04:43:58;9.33;;;5.73;;
8704;SDS011;4389;41.932;25.904;2023-04-26T04:46:25;8.83;;;6.87;;
8704;SDS011;4389;41.932;25.904;2023-04-26T04:48:52;8.70;;;6.27;;
8704;SDS011;4389;41.932;25.904;2023-04-26T04:51:20;6.63;;;6.03;;
8704;SDS011;4389;41.932;25.904;2023-04-26T04:53:48;7.83;;;6.03;;
8704;SDS011;4389;41.932;25.904;2023-04-26T04:56:15;11.30;;;6.87;;
8704;SDS011;4389;41.932;25.904;2023-04-26T04:58:42;9.43;;;5.93;;
8704;SDS011;4389;41.932;25.904;2023-04-26T05:01:09;9.33;;;6.53;;
8704;SDS011;4389;41.932;25.904;2023-04-26T05:03:36;6.77;;;6.10;;
8704;SDS011;4389;41.932;25.904;2023-04-26T05:06:03;6.53;;;5.93;;
8704;SDS011;4389;41.932;25.904;2023-04-26T05:08:32;6.57;;;5.80;;
8704;SDS011;4389;41.932;25.904;2023-04-26T05:10:59;7.37;;;6.40;;
8704;SDS011;4389;41.932;25.904;2023-04-26T05:13:25;7.97;;;6.40;;
8704;SDS011;4389;41.932;25.904;2023-04-26T05:15:52;7.73;;;6.87;;
8704;SDS011;4389;41.932;25.904;2023-04-26T05:18:19;9.00;;;5.70;;
8704;SDS011;4389;41.932;25.904;2023-04-26T05:20:46;9.83;;;5.93;;
8704;SDS011;4389;41.932;25.904;2023-04-26T05:23:13;11.10;;;5.70;;
8704;SDS011;4389;41.932;25.904;2023-04-26T05:25:41;7.13;;;6.43;;
8704;SDS011;4389;41.932;25.904;2023-04-26T05:28:08;8.30;;;7.50;;
8704;SDS011;4389;41.932;25.904;2023-04-26T05:30:36;6.43;;;5.67;;
8704;SDS011;4389;41.932;25.904;2023-04-26T05:33:03;10.50;;;7.10;;
8704;SDS011;4389;41.932;25.904;2023-04-26T05:35:30;9.07;;;6.20;;
8704;SDS011;4389;41.932;25.904;2023-04-26T05:37:58;5.87;;;4.50;;
8704;SDS011;4389;41.932;25.904;2023-04-26T05:40:24;9.20;;;4.77;;
8704;SDS011;4389;41.932;25.904;2023-04-26T05:42:53;5.83;;;5.30;;
8704;SDS011;4389;41.932;25.904;2023-04-26T05:45:19;9.10;;;5.13;;
8704;SDS011;4389;41.932;25.904;2023-04-26T05:47:47;6.17;;;5.23;;
8704;SDS011;4389;41.932;25.904;2023-04-26T05:50:14;5.57;;;4.57;;
8704;SDS011;4389;41.932;25.904;2023-04-26T05:52:41;4.90;;;4.47;;
8704;SDS011;4389;41.932;25.904;2023-04-26T05:55:08;4.77;;;4.30;;
8704;SDS011;4389;41.932;25.904;2023-04-26T05:57:35;4.93;;;4.33;;
8704;SDS011;4389;41.932;25.904;2023-04-26T06:00:04;7.30;;;4.70;;
8704;SDS011;4389;41.932;25.904;2023-04-26T06:02:33;6.83;;;4.80;;
8704;SDS011;4389;41.932;25.904;2023-04-26T06:05:00;5.97;;;4.43;;
8704;SDS011;4389;41.932;25.904;2023-04-26T06:07:27;4.43;;;4.03;;
8704;SDS011;4389;41.932;25.904;2023-04-26T06:09:54;10.77;;;5.10;;
8704;SDS011;4389;41.932;25.904;2023-04-26T06:12:21;9.10;;;8.30;;
8704;SDS011;4389;41.932;25.904;2023-04-26T06:14:47;5.80;;;5.13;;
8704;SDS011;4389;41.932;25.904;2023-04-26T06:17:16;9.03;;;4.30;;
8704;SDS011;4389;41.932;25.904;2023-04-26T06:19:42;4.83;;;4.40;;
8704;SDS011;4389;41.932;25.904;2023-04-26T06:22:09;5.07;;;4.20;;
8704;SDS011;4389;41.932;25.904;2023-04-26T06:24:36;4.30;;;3.90;;
8704;SDS011;4389;41.932;25.904;2023-04-26T06:27:03;5.93;;;4.50;;
8704;SDS011;4389;41.932;25.904;2023-04-26T06:31:58;5.73;;;3.77;;
8704;SDS011;4389;41.932;25.904;2023-04-26T06:34:26;4.00;;;3.60;;
8704;SDS011;4389;41.932;25.904;2023-04-26T06:36:53;6.37;;;3.70;;
8704;SDS011;4389;41.932;25.904;2023-04-26T06:39:19;6.57;;;4.10;;
8704;SDS011;4389;41.932;25.904;2023-04-26T06:41:46;3.60;;;3.30;;
8704;SDS011;4389;41.932;25.904;2023-04-26T06:44:13;5.33;;;3.90;;
8704;SDS011;4389;41.932;25.904;2023-04-26T06:46:40;5.40;;;4.80;;
8704;SDS011;4389;41.932;25.904;2023-04-26T06:49:07;4.60;;;4.20;;
8704;SDS011;4389;41.932;25.904;2023-04-26T06:51:35;4.50;;;4.10;;
8704;SDS011;4389;41.932;25.904;2023-04-26T06:54:03;4.50;;;4.10;;
8704;SDS011;4389;41.932;25.904;2023-04-26T06:56:30;4.87;;;4.47;;
8704;SDS011;4389;41.932;25.904;2023-04-26T06:58:57;14.67;;;4.67;;
8704;SDS011;4389;41.932;25.904;2023-04-26T07:01:25;5.87;;;4.40;;
8704;SDS011;4389;41.932;25.904;2023-04-26T07:03:53;4.63;;;4.20;;
8704;SDS011;4389;41.932;25.904;2023-04-26T07:06:21;5.17;;;4.00;;
8704;SDS011;4389;41.932;25.904;2023-04-26T07:08:49;4.00;;;3.70;;
8704;SDS011;4389;41.932;25.904;2023-04-26T07:11:16;3.80;;;3.50;;
8704;SDS011;4389;41.932;25.904;2023-04-26T07:13:43;3.57;;;3.27;;
8704;SDS011;4389;41.932;25.904;2023-04-26T07:16:10;3.13;;;2.83;;
8704;SDS011;4389;41.932;25.904;2023-04-26T07:18:37;3.20;;;2.90;;
8704;SDS011;4389;41.932;25.904;2023-04-26T07:21:04;5.00;;;2.93;;
8704;SDS011;4389;41.932;25.904;2023-04-26T07:23:32;6.30;;;3.33;;
8704;SDS011;4389;41.932;25.904;2023-04-26T07:26:00;4.27;;;3.30;;
8704;SDS011;4389;41.932;25.904;2023-04-26T07:28:28;3.50;;;3.20;;
8704;SDS011;4389;41.932;25.904;2023-04-26T07:30:55;5.37;;;3.30;;
8704;SDS011;4389;41.932;25.904;2023-04-26T07:33:22;8.43;;;3.60;;
8704;SDS011;4389;41.932;25.904;2023-04-26T07:35:52;6.07;;;3.43;;
8704;SDS011;4389;41.932;25.904;2023-04-26T07:38:19;3.20;;;2.90;;
8704;SDS011;4389;41.932;25.904;2023-04-26T07:40:46;3.33;;;3.03;;
8704;SDS011;4389;41.932;25.904;2023-04-26T07:43:14;4.40;;;4.00;;
8704;SDS011;4389;41.932;25.904;2023-04-26T07:45:41;4.50;;;3.00;;
8704;SDS011;4389;41.932;25.904;2023-04-26T07:48:08;4.57;;;2.90;;
8704;SDS011;4389;41.932;25.904;2023-04-26T07:50:35;4.77;;;3.00;;
8704;SDS011;4389;41.932;25.904;2023-04-26T07:53:02;4.97;;;2.67;;
8704;SDS011;4389;41.932;25.904;2023-04-26T07:55:29;3.20;;;2.87;;
8704;SDS011;4389;41.932;25.904;2023-04-26T07:57:56;3.70;;;2.80;;
8704;SDS011;4389;41.932;25.904;2023-04-26T08:00:24;3.77;;;2.90;;
8704;SDS011;4389;41.932;25.904;2023-04-26T08:02:51;5.83;;;3.23;;
8704;SDS011;4389;41.932;25.904;2023-04-26T08:05:19;3.87;;;3.57;;
8704;SDS011;4389;41.932;25.904;2023-04-26T08:07:46;3.77;;;3.33;;
8704;SDS011;4389;41.932;25.904;2023-04-26T08:10:12;2.90;;;2.70;;
8704;SDS011;4389;41.932;25.904;2023-04-26T08:12:40;5.73;;;3.30;;
8704;SDS011;4389;41.932;25.904;2023-04-26T08:15:07;4.83;;;2.87;;
8704;SDS011;4389;41.932;25.904;2023-04-26T08:17:36;2.73;;;2.53;;
8704;SDS011;4389;41.932;25.904;2023-04-26T08:20:03;3.03;;;2.67;;
8704;SDS011;4389;41.932;25.904;2023-04-26T08:22:31;2.70;;;2.50;;
8704;SDS011;4389;41.932;25.904;2023-04-26T08:24:58;2.77;;;2.17;;
8704;SDS011;4389;41.932;25.904;2023-04-26T08:27:24;2.90;;;2.60;;
8704;SDS011;4389;41.932;25.904;2023-04-26T08:29:52;4.60;;;2.57;;
8704;SDS011;4389;41.932;25.904;2023-04-26T08:32:19;3.93;;;2.37;;
8704;SDS011;4389;41.932;25.904;2023-04-26T08:34:47;4.17;;;2.67;;
8704;SDS011;4389;41.932;25.904;2023-04-26T08:37:14;3.50;;;2.93;;
8704;SDS011;4389;41.932;25.904;2023-04-26T08:39:41;3.50;;;3.20;;
8704;SDS011;4389;41.932;25.904;2023-04-26T08:42:11;3.03;;;2.73;;
8704;SDS011;4389;41.932;25.904;2023-04-26T08:44:40;5.10;;;2.40;;
8704;SDS011;4389;41.932;25.904;2023-04-26T08:47:09;2.33;;;2.13;;
8704;SDS011;4389;41.932;25.904;2023-04-26T08:49:42;2.90;;;2.70;;
8704;SDS011;4389;41.932;25.904;2023-04-26T08:52:11;2.83;;;2.63;;
8704;SDS011;4389;41.932;25.904;2023-04-26T08:54:39;5.17;;;3.00;;
8704;SDS011;4389;41.932;25.904;2023-04-26T08:57:07;6.47;;;3.47;;
8704;SDS011;4389;41.932;25.904;2023-04-26T08:59:35;2.70;;;2.50;;
8704;SDS011;4389;41.932;25.904;2023-04-26T09:02:03;2.93;;;2.67;;
8704;SDS011;4389;41.932;25.904;2023-04-26T09:04:31;2.50;;;2.30;;
8704;SDS011;4389;41.932;25.904;2023-04-26T09:06:58;3.60;;;2.63;;
8704;SDS011;4389;41.932;25.904;2023-04-26T09:09:29;2.40;;;2.20;;
8704;SDS011;4389;41.932;25.904;2023-04-26T09:12:02;3.40;;;2.70;;
8704;SDS011;4389;41.932;25.904;2023-04-26T09:14:29;2.70;;;2.50;;
8704;SDS011;4389;41.932;25.904;2023-04-26T09:16:56;4.60;;;2.60;;
8704;SDS011;4389;41.932;25.904;2023-04-26T09:19:33;2.63;;;2.43;;
8704;SDS011;4389;41.932;25.904;2023-04-26T09:22:02;2.50;;;2.30;;
8704;SDS011;4389;41.932;25.904;2023-04-26T09:24:44;6.37;;;2.57;;
8704;SDS011;4389;41.932;25.904;2023-04-26T09:27:12;2.67;;;2.27;;
8704;SDS011;4389;41.932;25.904;2023-04-26T09:29:40;3.20;;;2.30;;
8704;SDS011;4389;41.932;25.904;2023-04-26T09:32:22;7.27;;;4.43;;
8704;SDS011;4389;41.932;25.904;2023-04-26T09:34:50;3.40;;;2.80;;
8704;SDS011;4389;41.932;25.904;2023-04-26T09:37:17;3.00;;;2.80;;
8704;SDS011;4389;41.932;25.904;2023-04-26T09:39:45;3.43;;;3.13;;
8704;SDS011;4389;41.932;25.904;2023-04-26T09:42:15;4.10;;;2.70;;
8704;SDS011;4389;41.932;25.904;2023-04-26T09:44:43;12.37;;;3.07;;
8704;SDS011;4389;41.932;25.904;2023-04-26T09:47:10;3.50;;;2.50;;
8704;SDS011;4389;41.932;25.904;2023-04-26T09:49:44;16.97;;;3.67;;
8704;SDS011;4389;41.932;25.904;2023-04-26T09:52:13;2.67;;;2.30;;
8704;SDS011;4389;41.932;25.904;2023-04-26T09:54:41;6.23;;;2.30;;
8704;SDS011;4389;41.932;25.904;2023-04-26T09:57:11;2.47;;;2.27;;
8704;SDS011;4389;41.932;25.904;2023-04-26T09:59:40;2.77;;;2.40;;
8704;SDS011;4389;41.932;25.904;2023-04-26T10:02:14;10.80;;;4.00;;
8704;SDS011;4389;41.932;25.904;2023-04-26T10:04:46;10.13;;;8.60;;
8704;SDS011;4389;41.932;25.904;2023-04-26T10:07:14;6.23;;;5.27;;
8704;SDS011;4389;41.932;25.904;2023-04-26T10:09:42;10.93;;;2.73;;
8704;SDS011;4389;41.932;25.904;2023-04-26T10:12:12;2.80;;;2.43;;
8704;SDS011;4389;41.932;25.904;2023-04-26T10:14:41;2.77;;;2.07;;
8704;SDS011;4389;41.932;25.904;2023-04-26T10:17:10;4.10;;;2.77;;
8704;SDS011;4389;41.932;25.904;2023-04-26T10:19:39;5.40;;;4.83;;
8704;SDS011;4389;41.932;25.904;2023-04-26T10:22:10;7.57;;;3.03;;
8704;SDS011;4389;41.932;25.904;2023-04-26T10:24:43;2.40;;;2.20;;
8704;SDS011;4389;41.932;25.904;2023-04-26T10:27:13;8.33;;;2.83;;
8704;SDS011;4389;41.932;25.904;2023-04-26T10:35:59;6.37;;;2.30;;
8704;SDS011;4389;41.932;25.904;2023-04-26T10:38:29;2.10;;;1.90;;
8704;SDS011;4389;41.932;25.904;2023-04-26T10:43:58;2.40;;;2.10;;
8704;SDS011;4389;41.932;25.904;2023-04-26T10:46:36;5.47;;;2.13;;
8704;SDS011;4389;41.932;25.904;2023-04-26T10:49:12;2.57;;;2.20;;
8704;SDS011;4389;41.932;25.904;2023-04-26T10:54:47;14.43;;;2.60;;
8704;SDS011;4389;41.932;25.904;2023-04-26T10:57:16;8.23;;;2.57;;
8704;SDS011;4389;41.932;25.904;2023-04-26T11:02:54;2.43;;;2.00;;
8704;SDS011;4389;41.932;25.904;2023-04-26T11:05:35;2.97;;;2.10;;
8704;SDS011;4389;41.932;25.904;2023-04-26T11:08:14;21.63;;;3.80;;
8704;SDS011;4389;41.932;25.904;2023-04-26T11:10:44;4.40;;;2.53;;
8704;SDS011;4389;41.932;25.904;2023-04-26T11:13:15;3.30;;;2.03;;
8704;SDS011;4389;41.932;25.904;2023-04-26T11:15:45;2.87;;;2.60;;
8704;SDS011;4389;41.932;25.904;2023-04-26T11:18:13;4.70;;;2.80;;
8704;SDS011;4389;41.932;25.904;2023-04-26T11:20:44;4.53;;;2.40;;
8704;SDS011;4389;41.932;25.904;2023-04-26T11:23:11;2.20;;;2.00;;
8704;SDS011;4389;41.932;25.904;2023-04-26T11:25:39;4.17;;;2.00;;
8704;SDS011;4389;41.932;25.904;2023-04-26T11:28:06;4.80;;;2.40;;
8704;SDS011;4389;41.932;25.904;2023-04-26T11:30:32;3.10;;;2.00;;
8704;SDS011;4389;41.932;25.904;2023-04-26T11:33:01;2.10;;;1.90;;
8704;SDS011;4389;41.932;25.904;2023-04-26T11:35:29;3.93;;;2.60;;
8704;SDS011;4389;41.932;25.904;2023-04-26T11:37:59;2.40;;;2.20;;
8704;SDS011;4389;41.932;25.904;2023-04-26T11:40:29;5.73;;;2.20;;
8704;SDS011;4389;41.932;25.904;2023-04-26T11:42:59;13.30;;;3.40;;
8704;SDS011;4389;41.932;25.904;2023-04-26T11:45:27;2.83;;;2.20;;
8704;SDS011;4389;41.932;25.904;2023-04-26T11:47:55;2.33;;;2.13;;
8704;SDS011;4389;41.932;25.904;2023-04-26T11:50:24;2.13;;;1.93;;
8704;SDS011;4389;41.932;25.904;2023-04-26T11:52:55;5.23;;;2.40;;
8704;SDS011;4389;41.932;25.904;2023-04-26T11:55:22;9.57;;;4.13;;
8704;SDS011;4389;41.932;25.904;2023-04-26T11:57:51;11.60;;;3.20;;
8704;SDS011;4389;41.932;25.904;2023-04-26T12:00:18;7.50;;;6.13;;
8704;SDS011;4389;41.932;25.904;2023-04-26T12:02:46;15.37;;;6.90;;
8704;SDS011;4389;41.932;25.904;2023-04-26T12:05:20;4.93;;;2.80;;
8704;SDS011;4389;41.932;25.904;2023-04-26T12:07:49;3.33;;;2.50;;
8704;SDS011;4389;41.932;25.904;2023-04-26T12:10:18;3.03;;;2.80;;
8704;SDS011;4389;41.932;25.904;2023-04-26T12:12:47;5.17;;;2.93;;
8704;SDS011;4389;41.932;25.904;2023-04-26T12:15:15;3.93;;;2.50;;
8704;SDS011;4389;41.932;25.904;2023-04-26T12:17:52;3.63;;;2.87;;
8704;SDS011;4389;41.932;25.904;2023-04-26T12:20:25;3.37;;;2.90;;
8704;SDS011;4389;41.932;25.904;2023-04-26T12:23:01;2.83;;;2.63;;
8704;SDS011;4389;41.932;25.904;2023-04-26T12:25:30;4.83;;;2.87;;
8704;SDS011;4389;41.932;25.904;2023-04-26T12:27:58;2.70;;;2.50;;
8704;SDS011;4389;41.932;25.904;2023-04-26T12:30:25;3.30;;;2.70;;
8704;SDS011;4389;41.932;25.904;2023-04-26T12:32:54;3.90;;;2.50;;
8704;SDS011;4389;41.932;25.904;2023-04-26T12:35:22;2.80;;;2.60;;
8704;SDS011;4389;41.932;25.904;2023-04-26T12:37:49;6.13;;;2.70;;
8704;SDS011;4389;41.932;25.904;2023-04-26T12:40:18;7.43;;;2.93;;
8704;SDS011;4389;41.932;25.904;2023-04-26T12:42:46;4.47;;;3.00;;
8704;SDS011;4389;41.932;25.904;2023-04-26T12:45:14;5.43;;;3.17;;
8704;SDS011;4389;41.932;25.904;2023-04-26T12:47:41;5.90;;;2.83;;
8704;SDS011;4389;41.932;25.904;2023-04-26T12:50:08;6.63;;;3.50;;
8704;SDS011;4389;41.932;25.904;2023-04-26T12:52:37;7.10;;;3.10;;
8704;SDS011;4389;41.932;25.904;2023-04-26T12:55:05;6.70;;;3.27;;
8704;SDS011;4389;41.932;25.904;2023-04-26T12:57:34;2.87;;;2.67;;
8704;SDS011;4389;41.932;25.904;2023-04-26T13:00:01;3.20;;;2.70;;
8704;SDS011;4389;41.932;25.904;2023-04-26T13:02:29;3.43;;;2.70;;
8704;SDS011;4389;41.932;25.904;2023-04-26T13:04:56;7.43;;;4.67;;
8704;SDS011;4389;41.932;25.904;2023-04-26T13:07:24;3.47;;;3.17;;
8704;SDS011;4389;41.932;25.904;2023-04-26T13:09:51;3.30;;;2.83;;
8704;SDS011;4389;41.932;25.904;2023-04-26T13:12:18;3.40;;;3.10;;
8704;SDS011;4389;41.932;25.904;2023-04-26T13:14:47;3.80;;;3.20;;
8704;SDS011;4389;41.932;25.904;2023-04-26T13:17:13;3.57;;;3.27;;
8704;SDS011;4389;41.932;25.904;2023-04-26T13:19:40;4.23;;;3.43;;
8704;SDS011;4389;41.932;25.904;2023-04-26T13:22:09;3.57;;;3.27;;
8704;SDS011;4389;41.932;25.904;2023-04-26T13:24:36;6.03;;;3.90;;
8704;SDS011;4389;41.932;25.904;2023-04-26T13:27:03;4.20;;;3.80;;
8704;SDS011;4389;41.932;25.904;2023-04-26T13:29:30;6.27;;;4.53;;
8704;SDS011;4389;41.932;25.904;2023-04-26T13:31:58;4.63;;;4.03;;
8704;SDS011;4389;41.932;25.904;2023-04-26T13:34:26;3.63;;;3.33;;
8704;SDS011;4389;41.932;25.904;2023-04-26T13:36:53;4.30;;;3.90;;
8704;SDS011;4389;41.932;25.904;2023-04-26T13:39:22;7.07;;;3.80;;
8704;SDS011;4389;41.932;25.904;2023-04-26T13:41:49;6.87;;;4.40;;
8704;SDS011;4389;41.932;25.904;2023-04-26T13:44:16;9.40;;;5.43;;
8704;SDS011;4389;41.932;25.904;2023-04-26T13:46:44;4.93;;;4.43;;
8704;SDS011;4389;41.932;25.904;2023-04-26T13:49:12;4.73;;;4.30;;
8704;SDS011;4389;41.932;25.904;2023-04-26T13:51:40;4.77;;;4.13;;
8704;SDS011;4389;41.932;25.904;2023-04-26T13:54:08;5.07;;;4.57;;
8704;SDS011;4389;41.932;25.904;2023-04-26T13:56:36;7.03;;;4.83;;
8704;SDS011;4389;41.932;25.904;2023-04-26T13:59:03;7.67;;;4.37;;
8704;SDS011;4389;41.932;25.904;2023-04-26T14:01:32;9.43;;;4.63;;
8704;SDS011;4389;41.932;25.904;2023-04-26T14:04:00;5.00;;;3.90;;
8704;SDS011;4389;41.932;25.904;2023-04-26T14:06:29;15.93;;;10.33;;
8704;SDS011;4389;41.932;25.904;2023-04-26T14:08:58;6.73;;;4.20;;
8704;SDS011;4389;41.932;25.904;2023-04-26T14:11:25;5.47;;;3.87;;
8704;SDS011;4389;41.932;25.904;2023-04-26T14:13:52;4.93;;;3.73;;
8704;SDS011;4389;41.932;25.904;2023-04-26T14:16:21;6.43;;;3.93;;
8704;SDS011;4389;41.932;25.904;2023-04-26T14:18:48;4.93;;;3.80;;
8704;SDS011;4389;41.932;25.904;2023-04-26T14:21:15;10.83;;;3.97;;
8704;SDS011;4389;41.932;25.904;2023-04-26T14:23:44;3.90;;;3.13;;
8704;SDS011;4389;41.932;25.904;2023-04-26T14:26:11;4.83;;;3.00;;
8704;SDS011;4389;41.932;25.904;2023-04-26T14:28:38;4.67;;;3.27;;
8704;SDS011;4389;41.932;25.904;2023-04-26T14:31:10;4.43;;;2.70;;
8704;SDS011;4389;41.932;25.904;2023-04-26T14:33:50;3.47;;;3.10;;
8704;SDS011;4389;41.932;25.904;2023-04-26T14:36:17;3.30;;;3.00;;
8704;SDS011;4389;41.932;25.904;2023-04-26T14:38:45;3.20;;;2.93;;
8704;SDS011;4389;41.932;25.904;2023-04-26T14:41:15;4.20;;;3.53;;
8704;SDS011;4389;41.932;25.904;2023-04-26T14:43:42;7.00;;;3.37;;
8704;SDS011;4389;41.932;25.904;2023-04-26T14:46:10;3.73;;;3.37;;
8704;SDS011;4389;41.932;25.904;2023-04-26T14:48:36;6.50;;;3.67;;
8704;SDS011;4389;41.932;25.904;2023-04-26T14:51:03;4.10;;;3.70;;
8704;SDS011;4389;41.932;25.904;2023-04-26T14:53:31;4.93;;;3.40;;
8704;SDS011;4389;41.932;25.904;2023-04-26T14:55:59;6.30;;;3.57;;
8704;SDS011;4389;41.932;25.904;2023-04-26T14:58:27;8.80;;;3.43;;
8704;SDS011;4389;41.932;25.904;2023-04-26T15:00:53;3.40;;;2.87;;
8704;SDS011;4389;41.932;25.904;2023-04-26T15:03:20;3.60;;;3.30;;
8704;SDS011;4389;41.932;25.904;2023-04-26T15:05:47;3.00;;;2.80;;
8704;SDS011;4389;41.932;25.904;2023-04-26T15:08:15;8.10;;;6.83;;
8704;SDS011;4389;41.932;25.904;2023-04-26T15:10:41;7.87;;;6.40;;
8704;SDS011;4389;41.932;25.904;2023-04-26T15:13:09;4.20;;;3.63;;
8704;SDS011;4389;41.932;25.904;2023-04-26T15:15:36;5.40;;;4.43;;
8704;SDS011;4389;41.932;25.904;2023-04-26T15:18:03;6.60;;;5.47;;
8704;SDS011;4389;41.932;25.904;2023-04-26T15:20:30;5.47;;;4.27;;
8704;SDS011;4389;41.932;25.904;2023-04-26T15:22:57;10.27;;;7.60;;